sensor_id;sensor_type;location;lat;lon;timestamp;pressure;altitude;pressure_sealevel;temperature;humidity
72414;BME280;60995;52.154;4.498;2023-04-27T00:01:47;102114.94;;;6.30;64.55
72414;BME280;60995;52.154;4.498;2023-04-27T00:04:04;102118.56;;;6.29;64.77
72414;BME280;60995;52.154;4.498;2023-04-27T00:06:22;102125.84;;;6.27;65.95
72414;BME280;60995;52.154;4.498;2023-04-27T00:08:38;102118.31;;;6.16;65.44
72414;BME280;60995;52.154;4.498;2023-04-27T00:10:55;102115.69;;;6.15;65.98
72414;BME280;60995;52.154;4.498;2023-04-27T00:13:12;102128.84;;;6.03;65.96
72414;BME280;60995;52.154;4.498;2023-04-27T00:15:28;102121.00;;;5.99;67.16
72414;BME280;60995;52.154;4.498;2023-04-27T00:17:45;102107.88;;;5.91;66.97
72414;BME280;60995;52.154;4.498;2023-04-27T00:20:01;102114.00;;;5.94;67.54
72414;BME280;60995;52.154;4.498;2023-04-27T00:22:20;102112.38;;;5.90;68.00
72414;BME280;60995;52.154;4.498;2023-04-27T00:24:36;102114.28;;;5.88;67.57
72414;BME280;60995;52.154;4.498;2023-04-27T00:26:52;102109.91;;;5.86;68.40
72414;BME280;60995;52.154;4.498;2023-04-27T00:29:08;102109.91;;;5.86;68.45
72414;BME280;60995;52.154;4.498;2023-04-27T00:31:25;102108.16;;;5.85;68.74
72414;BME280;60995;52.154;4.498;2023-04-27T00:33:41;102110.03;;;5.83;67.92
72414;BME280;60995;52.154;4.498;2023-04-27T00:36:00;102115.44;;;5.83;69.20
72414;BME280;60995;52.154;4.498;2023-04-27T00:38:17;102106.41;;;5.84;68.95
72414;BME280;60995;52.154;4.498;2023-04-27T00:40:33;102106.41;;;5.84;68.79
72414;BME280;60995;52.154;4.498;2023-04-27T00:42:49;102103.50;;;5.88;68.60
72414;BME280;60995;52.154;4.498;2023-04-27T00:45:06;102109.63;;;5.92;68.51
72414;BME280;60995;52.154;4.498;2023-04-27T00:47:23;102101.75;;;6.06;67.60
72414;BME280;60995;52.154;4.498;2023-04-27T00:49:40;102098.84;;;5.92;67.42
72414;BME280;60995;52.154;4.498;2023-04-27T00:51:56;102096.06;;;5.93;68.25
72414;BME280;60995;52.154;4.498;2023-04-27T00:54:20;102097.78;;;6.13;67.60
72414;BME280;60995;52.154;4.498;2023-04-27T00:56:37;102097.66;;;5.97;67.72
72414;BME280;60995;52.154;4.498;2023-04-27T00:58:54;102099.28;;;5.83;68.23
72414;BME280;60995;52.154;4.498;2023-04-27T01:01:10;102102.94;;;5.82;68.45
72414;BME280;60995;52.154;4.498;2023-04-27T01:03:28;102100.75;;;5.71;68.84
72414;BME280;60995;52.154;4.498;2023-04-27T01:05:45;102103.53;;;5.69;69.21
72414;BME280;60995;52.154;4.498;2023-04-27T01:08:01;102101.78;;;5.68;69.24
72414;BME280;60995;52.154;4.498;2023-04-27T01:10:18;102108.47;;;5.78;68.87
72414;BME280;60995;52.154;4.498;2023-04-27T01:12:34;102104.66;;;5.83;69.47
72414;BME280;60995;52.154;4.498;2023-04-27T01:14:51;102101.28;;;5.96;69.58
72414;BME280;60995;52.154;4.498;2023-04-27T01:17:07;102098.41;;;6.01;69.39
72414;BME280;60995;52.154;4.498;2023-04-27T01:19:23;102097.66;;;5.97;69.11
72414;BME280;60995;52.154;4.498;2023-04-27T01:21:39;102086.63;;;5.85;69.45
72414;BME280;60995;52.154;4.498;2023-04-27T01:23:56;102090.25;;;5.84;69.80
72414;BME280;60995;52.154;4.498;2023-04-27T01:26:12;102091.38;;;6.16;69.52
72414;BME280;60995;52.154;4.498;2023-04-27T01:28:31;102085.75;;;6.21;68.03
72414;BME280;60995;52.154;4.498;2023-04-27T01:30:47;102085.81;;;6.02;68.63
72414;BME280;60995;52.154;4.498;2023-04-27T01:33:03;102077.16;;;6.12;68.59
72414;BME280;60995;52.154;4.498;2023-04-27T01:35:19;102073.06;;;6.05;68.62
72414;BME280;60995;52.154;4.498;2023-04-27T01:37:36;102073.22;;;5.83;69.92
72414;BME280;60995;52.154;4.498;2023-04-27T01:39:52;102075.38;;;5.76;70.25
72414;BME280;60995;52.154;4.498;2023-04-27T01:42:08;102071.50;;;5.63;71.31
72414;BME280;60995;52.154;4.498;2023-04-27T01:44:25;102069.25;;;5.54;71.77
72414;BME280;60995;52.154;4.498;2023-04-27T01:46:41;102073.53;;;5.58;72.01
72414;BME280;60995;52.154;4.498;2023-04-27T01:48:57;102067.66;;;5.50;72.42
72414;BME280;60995;52.154;4.498;2023-04-27T01:51:13;102071.75;;;5.39;72.22
72414;BME280;60995;52.154;4.498;2023-04-27T01:53:30;102071.63;;;5.42;73.23
72414;BME280;60995;52.154;4.498;2023-04-27T01:55:46;102071.75;;;5.39;72.74
72414;BME280;60995;52.154;4.498;2023-04-27T01:58:02;102080.47;;;5.44;72.92
72414;BME280;60995;52.154;4.498;2023-04-27T02:00:19;102074.44;;;5.39;72.84
72414;BME280;60995;52.154;4.498;2023-04-27T02:02:35;102074.97;;;5.47;72.93
72414;BME280;60995;52.154;4.498;2023-04-27T02:04:51;102074.25;;;5.44;72.56
72414;BME280;60995;52.154;4.498;2023-04-27T02:07:08;102076.19;;;5.40;73.08
72414;BME280;60995;52.154;4.498;2023-04-27T02:09:24;102068.31;;;5.36;73.20
72414;BME280;60995;52.154;4.498;2023-04-27T02:11:40;102067.91;;;5.26;73.68
72414;BME280;60995;52.154;4.498;2023-04-27T02:13:57;102069.66;;;5.27;73.29
72414;BME280;60995;52.154;4.498;2023-04-27T02:16:13;102068.06;;;5.23;73.38
72414;BME280;60995;52.154;4.498;2023-04-27T02:18:30;102061.16;;;5.36;73.28
72414;BME280;60995;52.154;4.498;2023-04-27T02:20:47;102056.41;;;5.41;73.50
72414;BME280;60995;52.154;4.498;2023-04-27T02:23:03;102061.22;;;5.35;72.94
72414;BME280;60995;52.154;4.498;2023-04-27T02:25:19;102067.63;;;5.32;72.60
72414;BME280;60995;52.154;4.498;2023-04-27T02:27:39;102067.91;;;5.26;72.93
72414;BME280;60995;52.154;4.498;2023-04-27T02:29:56;102067.63;;;5.32;73.52
72414;BME280;60995;52.154;4.498;2023-04-27T02:32:12;102058.25;;;5.22;73.34
72414;BME280;60995;52.154;4.498;2023-04-27T02:34:28;102062.31;;;5.11;74.02
72414;BME280;60995;52.154;4.498;2023-04-27T02:36:45;102059.91;;;5.05;74.46
72414;BME280;60995;52.154;4.498;2023-04-27T02:39:01;102052.91;;;5.01;74.05
72414;BME280;60995;52.154;4.498;2023-04-27T02:41:17;102063.03;;;4.96;74.03
72414;BME280;60995;52.154;4.498;2023-04-27T02:43:33;102060.75;;;5.06;73.76
72414;BME280;60995;52.154;4.498;2023-04-27T02:45:50;102054.81;;;5.18;73.56
72414;BME280;60995;52.154;4.498;2023-04-27T02:48:06;102061.41;;;5.11;73.34
72414;BME280;60995;52.154;4.498;2023-04-27T02:50:22;102061.66;;;5.06;72.67
72414;BME280;60995;52.154;4.498;2023-04-27T02:52:39;102062.97;;;5.17;72.80
72414;BME280;60995;52.154;4.498;2023-04-27T02:54:55;102068.06;;;5.23;72.08
72414;BME280;60995;52.154;4.498;2023-04-27T02:57:12;102072.56;;;5.22;71.39
72414;BME280;60995;52.154;4.498;2023-04-27T02:59:28;102065.59;;;5.18;71.45
72414;BME280;60995;52.154;4.498;2023-04-27T03:01:44;102077.34;;;5.16;71.47
72414;BME280;60995;52.154;4.498;2023-04-27T03:04:01;102075.75;;;5.11;71.11
72414;BME280;60995;52.154;4.498;2023-04-27T03:06:17;102078.38;;;5.13;71.76
72414;BME280;60995;52.154;4.498;2023-04-27T03:08:33;102074.22;;;5.25;71.75
72414;BME280;60995;52.154;4.498;2023-04-27T03:10:50;102073.00;;;5.32;70.35
72414;BME280;60995;52.154;4.498;2023-04-27T03:13:06;102068.72;;;5.28;69.79
72414;BME280;60995;52.154;4.498;2023-04-27T03:15:22;102071.53;;;5.25;70.01
72414;BME280;60995;52.154;4.498;2023-04-27T03:17:38;102069.66;;;5.27;70.83
72414;BME280;60995;52.154;4.498;2023-04-27T03:19:55;102078.69;;;5.26;70.15
72414;BME280;60995;52.154;4.498;2023-04-27T03:22:11;102069.50;;;5.11;69.90
72414;BME280;60995;52.154;4.498;2023-04-27T03:24:27;102068.72;;;5.28;69.77
72414;BME280;60995;52.154;4.498;2023-04-27T03:26:44;102077.50;;;5.32;69.74
72414;BME280;60995;52.154;4.498;2023-04-27T03:29:00;102078.22;;;5.35;69.50
72414;BME280;60995;52.154;4.498;2023-04-27T03:31:16;102077.81;;;5.25;69.84
72414;BME280;60995;52.154;4.498;2023-04-27T03:33:33;102070.09;;;5.18;69.85
72414;BME280;60995;52.154;4.498;2023-04-27T03:35:57;102068.78;;;5.26;69.88
72414;BME280;60995;52.154;4.498;2023-04-27T03:38:14;102061.22;;;5.16;70.11
72414;BME280;60995;52.154;4.498;2023-04-27T03:40:30;102059.19;;;5.21;70.46
72414;BME280;60995;52.154;4.498;2023-04-27T03:42:46;102066.44;;;5.19;70.64
72414;BME280;60995;52.154;4.498;2023-04-27T03:45:03;102068.47;;;5.13;70.70
72414;BME280;60995;52.154;4.498;2023-04-27T03:47:21;102079.31;;;5.12;70.96
72414;BME280;60995;52.154;4.498;2023-04-27T03:49:37;102080.25;;;5.11;71.05
72414;BME280;60995;52.154;4.498;2023-04-27T03:51:53;102077.19;;;5.19;71.05
72414;BME280;60995;52.154;4.498;2023-04-27T03:54:10;102090.88;;;5.14;70.08
72414;BME280;60995;52.154;4.498;2023-04-27T03:56:26;102085.63;;;5.11;70.63
72414;BME280;60995;52.154;4.498;2023-04-27T03:58:42;102091.63;;;5.18;70.38
72414;BME280;60995;52.154;4.498;2023-04-27T04:00:58;102087.38;;;5.12;69.92
72414;BME280;60995;52.154;4.498;2023-04-27T04:03:15;102089.88;;;5.17;70.25
72414;BME280;60995;52.154;4.498;2023-04-27T04:05:31;102088.13;;;5.16;69.92
72414;BME280;60995;52.154;4.498;2023-04-27T04:07:48;102099.16;;;5.09;70.39
72414;BME280;60995;52.154;4.498;2023-04-27T04:10:04;102094.09;;;5.03;70.45
72414;BME280;60995;52.154;4.498;2023-04-27T04:12:21;102101.50;;;5.17;69.75
72414;BME280;60995;52.154;4.498;2023-04-27T04:14:38;102098.72;;;5.19;69.80
72414;BME280;60995;52.154;4.498;2023-04-27T04:16:54;102096.69;;;5.24;69.44
72414;BME280;60995;52.154;4.498;2023-04-27T04:19:11;102097.22;;;5.32;69.27
72414;BME280;60995;52.154;4.498;2023-04-27T04:21:28;102103.13;;;5.40;68.61
72414;BME280;60995;52.154;4.498;2023-04-27T04:23:44;102101.97;;;5.27;69.41
72414;BME280;60995;52.154;4.498;2023-04-27T04:26:00;102103.72;;;5.28;69.54
72414;BME280;60995;52.154;4.498;2023-04-27T04:28:17;102104.28;;;5.35;69.84
72414;BME280;60995;52.154;4.498;2023-04-27T04:30:33;102112.28;;;5.36;69.46
72414;BME280;60995;52.154;4.498;2023-04-27T04:32:49;102114.16;;;5.34;69.15
72414;BME280;60995;52.154;4.498;2023-04-27T04:35:05;102117.00;;;5.31;69.22
72414;BME280;60995;52.154;4.498;2023-04-27T04:37:22;102111.34;;;5.37;70.18
72414;BME280;60995;52.154;4.498;2023-04-27T04:39:38;102112.94;;;5.41;70.24
72414;BME280;60995;52.154;4.498;2023-04-27T04:41:55;102122.78;;;5.42;70.04
72414;BME280;60995;52.154;4.498;2023-04-27T04:44:11;102118.97;;;5.46;70.13
72414;BME280;60995;52.154;4.498;2023-04-27T04:46:28;102113.19;;;5.73;70.34
72414;BME280;60995;52.154;4.498;2023-04-27T04:48:45;102112.25;;;5.74;69.09
72414;BME280;60995;52.154;4.498;2023-04-27T04:51:04;102115.59;;;5.79;69.06
72414;BME280;60995;52.154;4.498;2023-04-27T04:53:21;102121.34;;;5.91;68.43
72414;BME280;60995;52.154;4.498;2023-04-27T04:55:37;102111.06;;;5.99;68.89
72414;BME280;60995;52.154;4.498;2023-04-27T04:57:54;102105.47;;;6.04;68.37
72414;BME280;60995;52.154;4.498;2023-04-27T05:00:10;102110.63;;;6.08;67.47
72414;BME280;60995;52.154;4.498;2023-04-27T05:02:28;102118.19;;;6.19;66.39
72414;BME280;60995;52.154;4.498;2023-04-27T05:04:44;102117.78;;;6.44;65.23
72414;BME280;60995;52.154;4.498;2023-04-27T05:07:00;102118.81;;;6.42;65.10
72414;BME280;60995;52.154;4.498;2023-04-27T05:09:17;102108.03;;;6.42;65.67
72414;BME280;60995;52.154;4.498;2023-04-27T05:11:33;102124.06;;;6.62;65.23
72414;BME280;60995;52.154;4.498;2023-04-27T05:13:50;102119.34;;;6.84;64.08
72414;BME280;60995;52.154;4.498;2023-04-27T05:16:06;102113.34;;;6.61;64.00
72414;BME280;60995;52.154;4.498;2023-04-27T05:18:23;102111.25;;;6.66;64.31
72414;BME280;60995;52.154;4.498;2023-04-27T05:20:39;102120.41;;;6.97;63.88
72414;BME280;60995;52.154;4.498;2023-04-27T05:22:55;102116.34;;;7.06;64.73
72414;BME280;60995;52.154;4.498;2023-04-27T05:25:11;102109.84;;;7.26;65.31
72414;BME280;60995;52.154;4.498;2023-04-27T05:27:28;102122.25;;;7.30;63.38
72414;BME280;60995;52.154;4.498;2023-04-27T05:29:44;102112.69;;;7.72;62.40
72414;BME280;60995;52.154;4.498;2023-04-27T05:32:01;102115.31;;;7.42;62.44
72414;BME280;60995;52.154;4.498;2023-04-27T05:34:17;102120.38;;;7.64;63.48
72414;BME280;60995;52.154;4.498;2023-04-27T05:36:35;102119.47;;;7.64;62.02
72414;BME280;60995;52.154;4.498;2023-04-27T05:38:51;102117.47;;;7.51;61.70
72414;BME280;60995;52.154;4.498;2023-04-27T05:41:07;102120.69;;;7.90;61.63
72414;BME280;60995;52.154;4.498;2023-04-27T05:43:24;102119.78;;;8.05;60.56
72414;BME280;60995;52.154;4.498;2023-04-27T05:45:41;102111.31;;;8.42;60.28
72414;BME280;60995;52.154;4.498;2023-04-27T05:47:57;102109.69;;;8.55;58.27
72414;BME280;60995;52.154;4.498;2023-04-27T05:50:13;102107.34;;;8.49;59.26
72414;BME280;60995;52.154;4.498;2023-04-27T05:52:30;102113.19;;;8.86;59.15
72414;BME280;60995;52.154;4.498;2023-04-27T05:54:47;102124.44;;;9.23;57.32
72414;BME280;60995;52.154;4.498;2023-04-27T05:57:04;102125.97;;;8.84;57.25
72414;BME280;60995;52.154;4.498;2023-04-27T05:59:20;102122.06;;;9.46;56.31
72414;BME280;60995;52.154;4.498;2023-04-27T06:01:37;102126.19;;;9.10;56.31
72414;BME280;60995;52.154;4.498;2023-04-27T06:03:54;102131.78;;;9.77;55.42
72414;BME280;60995;52.154;4.498;2023-04-27T06:06:10;102125.97;;;11.67;50.21
72414;BME280;60995;52.154;4.498;2023-04-27T06:08:27;102114.28;;;13.09;45.83
72414;BME280;60995;52.154;4.498;2023-04-27T06:10:44;102115.75;;;13.02;45.70
72414;BME280;60995;52.154;4.498;2023-04-27T06:13:01;102118.50;;;14.14;43.66
72414;BME280;60995;52.154;4.498;2023-04-27T06:15:17;102116.09;;;14.95;41.52
72414;BME280;60995;52.154;4.498;2023-04-27T06:17:37;102114.06;;;16.49;37.96
72414;BME280;60995;52.154;4.498;2023-04-27T06:19:54;102109.34;;;17.74;35.84
72414;BME280;60995;52.154;4.498;2023-04-27T06:22:10;102113.50;;;16.55;36.36
72414;BME280;60995;52.154;4.498;2023-04-27T06:24:27;102118.97;;;16.55;36.18
72414;BME280;60995;52.154;4.498;2023-04-27T06:26:43;102117.47;;;16.80;36.57
72414;BME280;60995;52.154;4.498;2023-04-27T06:28:59;102115.47;;;19.55;31.56
72414;BME280;60995;52.154;4.498;2023-04-27T06:31:18;102110.50;;;19.58;31.18
72414;BME280;60995;52.154;4.498;2023-04-27T06:33:34;102108.19;;;19.11;32.42
72414;BME280;60995;52.154;4.498;2023-04-27T06:35:51;102111.94;;;18.83;32.87
72414;BME280;60995;52.154;4.498;2023-04-27T06:38:07;102102.38;;;19.14;32.00
72414;BME280;60995;52.154;4.498;2023-04-27T06:40:24;102101.56;;;21.38;29.29
72414;BME280;60995;52.154;4.498;2023-04-27T06:42:41;102101.38;;;20.75;30.13
72414;BME280;60995;52.154;4.498;2023-04-27T06:44:57;102101.34;;;17.80;34.97
72414;BME280;60995;52.154;4.498;2023-04-27T06:47:13;102108.56;;;19.50;31.97
72414;BME280;60995;52.154;4.498;2023-04-27T06:49:30;102103.00;;;19.08;31.81
72414;BME280;60995;52.154;4.498;2023-04-27T06:51:47;102108.09;;;18.32;33.16
72414;BME280;60995;52.154;4.498;2023-04-27T06:54:04;102116.06;;;17.33;34.80
72414;BME280;60995;52.154;4.498;2023-04-27T06:56:20;102108.13;;;16.63;36.32
72414;BME280;60995;52.154;4.498;2023-04-27T06:58:37;102107.00;;;17.79;34.85
72414;BME280;60995;52.154;4.498;2023-04-27T07:00:53;102108.94;;;18.14;34.27
72414;BME280;60995;52.154;4.498;2023-04-27T07:03:10;102114.13;;;17.99;33.79
72414;BME280;60995;52.154;4.498;2023-04-27T07:05:26;102108.38;;;17.37;35.53
72414;BME280;60995;52.154;4.498;2023-04-27T07:07:42;102105.19;;;18.33;34.66
72414;BME280;60995;52.154;4.498;2023-04-27T07:09:59;102091.94;;;17.93;34.71
72414;BME280;60995;52.154;4.498;2023-04-27T07:12:15;102104.97;;;17.25;35.21
72414;BME280;60995;52.154;4.498;2023-04-27T07:14:31;102101.97;;;17.18;36.35
72414;BME280;60995;52.154;4.498;2023-04-27T07:16:48;102108.16;;;18.58;33.83
72414;BME280;60995;52.154;4.498;2023-04-27T07:19:04;102104.69;;;19.78;30.44
72414;BME280;60995;52.154;4.498;2023-04-27T07:21:21;102101.25;;;18.54;32.32
72414;BME280;60995;52.154;4.498;2023-04-27T07:23:38;102099.06;;;16.73;35.35
72414;BME280;60995;52.154;4.498;2023-04-27T07:25:56;102098.22;;;18.03;33.72
72414;BME280;60995;52.154;4.498;2023-04-27T07:28:12;102100.72;;;18.32;32.80
72414;BME280;60995;52.154;4.498;2023-04-27T07:30:29;102096.00;;;17.33;34.25
72414;BME280;60995;52.154;4.498;2023-04-27T07:32:46;102099.94;;;16.44;36.39
72414;BME280;60995;52.154;4.498;2023-04-27T07:35:08;102105.97;;;16.77;35.30
72414;BME280;60995;52.154;4.498;2023-04-27T07:37:25;102111.03;;;17.57;34.49
72414;BME280;60995;52.154;4.498;2023-04-27T07:39:42;102099.25;;;17.46;33.28
72414;BME280;60995;52.154;4.498;2023-04-27T07:41:58;102104.66;;;17.28;33.68
72414;BME280;60995;52.154;4.498;2023-04-27T07:44:16;102104.56;;;17.20;33.15
72414;BME280;60995;52.154;4.498;2023-04-27T07:46:33;102094.16;;;17.24;34.28
72414;BME280;60995;52.154;4.498;2023-04-27T07:48:50;102101.44;;;15.68;35.95
72414;BME280;60995;52.154;4.498;2023-04-27T07:51:07;102100.22;;;17.55;33.47
72414;BME280;60995;52.154;4.498;2023-04-27T07:53:23;102092.16;;;17.99;32.80
72414;BME280;60995;52.154;4.498;2023-04-27T07:55:39;102090.91;;;19.27;31.28
72414;BME280;60995;52.154;4.498;2023-04-27T07:57:56;102098.47;;;16.59;34.93
72414;BME280;60995;52.154;4.498;2023-04-27T08:00:12;102106.16;;;17.13;35.13
72414;BME280;60995;52.154;4.498;2023-04-27T08:02:29;102096.00;;;19.13;31.97
72414;BME280;60995;52.154;4.498;2023-04-27T08:04:46;102105.03;;;18.35;32.05
72414;BME280;60995;52.154;4.498;2023-04-27T08:07:03;102096.28;;;17.30;34.18
72414;BME280;60995;52.154;4.498;2023-04-27T08:09:20;102094.34;;;17.40;34.84
72414;BME280;60995;52.154;4.498;2023-04-27T08:11:36;102100.13;;;18.47;31.55
72414;BME280;60995;52.154;4.498;2023-04-27T08:13:52;102089.91;;;18.57;31.76
72414;BME280;60995;52.154;4.498;2023-04-27T08:16:08;102086.28;;;17.94;33.29
72414;BME280;60995;52.154;4.498;2023-04-27T08:18:26;102093.16;;;16.67;35.59
72414;BME280;60995;52.154;4.498;2023-04-27T08:20:42;102083.19;;;16.57;36.22
72414;BME280;60995;52.154;4.498;2023-04-27T08:22:58;102090.72;;;16.54;35.09
72414;BME280;60995;52.154;4.498;2023-04-27T08:25:15;102097.47;;;15.41;36.92
72414;BME280;60995;52.154;4.498;2023-04-27T08:27:31;102092.44;;;14.63;37.93
72414;BME280;60995;52.154;4.498;2023-04-27T08:29:49;102093.25;;;14.96;37.09
72414;BME280;60995;52.154;4.498;2023-04-27T08:32:06;102094.97;;;14.97;37.56
72414;BME280;60995;52.154;4.498;2023-04-27T08:34:23;102098.34;;;14.80;37.44
72414;BME280;60995;52.154;4.498;2023-04-27T08:36:39;102094.53;;;14.71;38.38
72414;BME280;60995;52.154;4.498;2023-04-27T08:38:55;102091.53;;;15.77;36.62
72414;BME280;60995;52.154;4.498;2023-04-27T08:41:17;102087.63;;;16.87;34.49
72414;BME280;60995;52.154;4.498;2023-04-27T08:43:38;102086.72;;;18.44;32.52
72414;BME280;60995;52.154;4.498;2023-04-27T08:45:54;102090.34;;;17.62;33.28
72414;BME280;60995;52.154;4.498;2023-04-27T08:48:11;102087.94;;;16.64;34.34
72414;BME280;60995;52.154;4.498;2023-04-27T08:50:28;102081.09;;;17.63;33.13
72414;BME280;60995;52.154;4.498;2023-04-27T08:52:47;102078.63;;;17.88;32.94
72414;BME280;60995;52.154;4.498;2023-04-27T08:55:05;102074.09;;;17.51;33.44
72414;BME280;60995;52.154;4.498;2023-04-27T08:57:23;102082.44;;;17.59;32.73
72414;BME280;60995;52.154;4.498;2023-04-27T08:59:39;102082.69;;;17.00;33.40
72414;BME280;60995;52.154;4.498;2023-04-27T09:01:56;102087.41;;;16.31;34.99
72414;BME280;60995;52.154;4.498;2023-04-27T09:04:13;102079.84;;;17.58;33.31
72414;BME280;60995;52.154;4.498;2023-04-27T09:06:31;102070.28;;;18.52;31.09
72414;BME280;60995;52.154;4.498;2023-04-27T09:08:49;102079.94;;;19.00;31.07
72414;BME280;60995;52.154;4.498;2023-04-27T09:11:06;102071.03;;;20.66;28.79
72414;BME280;60995;52.154;4.498;2023-04-27T09:13:22;102084.81;;;19.49;28.88
72414;BME280;60995;52.154;4.498;2023-04-27T09:15:50;102073.97;;;18.87;30.17
72414;BME280;60995;52.154;4.498;2023-04-27T09:18:23;102062.34;;;17.77;32.05
72414;BME280;60995;52.154;4.498;2023-04-27T09:20:52;102071.22;;;16.67;31.89
72414;BME280;60995;52.154;4.498;2023-04-27T09:23:08;102068.00;;;17.29;31.72
72414;BME280;60995;52.154;4.498;2023-04-27T09:25:30;102082.09;;;17.90;30.63
72414;BME280;60995;52.154;4.498;2023-04-27T09:27:47;102070.00;;;18.81;29.13
72414;BME280;60995;52.154;4.498;2023-04-27T09:30:13;102071.16;;;18.97;29.37
72414;BME280;60995;52.154;4.498;2023-04-27T09:32:30;102068.41;;;18.97;29.50
72414;BME280;60995;52.154;4.498;2023-04-27T09:34:46;102071.09;;;18.26;30.47
72414;BME280;60995;52.154;4.498;2023-04-27T09:37:03;102079.06;;;17.65;31.28
72414;BME280;60995;52.154;4.498;2023-04-27T09:39:20;102080.16;;;16.69;32.32
72414;BME280;60995;52.154;4.498;2023-04-27T09:41:37;102085.75;;;16.78;31.87
72414;BME280;60995;52.154;4.498;2023-04-27T09:43:54;102080.09;;;17.36;31.63
72414;BME280;60995;52.154;4.498;2023-04-27T09:46:12;102072.25;;;19.12;29.55
72414;BME280;60995;52.154;4.498;2023-04-27T09:48:29;102074.28;;;17.95;30.99
72414;BME280;60995;52.154;4.498;2023-04-27T09:50:47;102065.00;;;18.14;28.60
72414;BME280;60995;52.154;4.498;2023-04-27T09:53:08;102070.13;;;16.88;29.88
72414;BME280;60995;52.154;4.498;2023-04-27T09:55:30;102066.13;;;18.66;27.23
72414;BME280;60995;52.154;4.498;2023-04-27T09:57:59;102066.19;;;18.12;28.48
72414;BME280;60995;52.154;4.498;2023-04-27T10:09:02;102068.41;;;17.80;29.22
72414;BME280;60995;52.154;4.498;2023-04-27T10:11:33;102070.84;;;17.38;29.03
72414;BME280;60995;52.154;4.498;2023-04-27T10:13:54;102075.38;;;18.65;27.96
72414;BME280;60995;52.154;4.498;2023-04-27T10:16:14;102066.72;;;19.39;26.29
72414;BME280;60995;52.154;4.498;2023-04-27T10:18:31;102062.00;;;19.74;26.63
72414;BME280;60995;52.154;4.498;2023-04-27T10:20:48;102066.53;;;19.91;27.33
72414;BME280;60995;52.154;4.498;2023-04-27T10:23:06;102057.28;;;20.17;25.97
72414;BME280;60995;52.154;4.498;2023-04-27T10:25:36;102078.03;;;17.48;28.62
72414;BME280;60995;52.154;4.498;2023-04-27T10:27:58;102060.03;;;18.36;27.86
72414;BME280;60995;52.154;4.498;2023-04-27T10:30:18;102060.53;;;19.02;26.24
72414;BME280;60995;52.154;4.498;2023-04-27T10:32:35;102072.47;;;18.66;26.87
72414;BME280;60995;52.154;4.498;2023-04-27T10:35:02;102057.72;;;18.05;27.12
72414;BME280;60995;52.154;4.498;2023-04-27T10:37:37;102067.88;;;18.93;26.28
72414;BME280;60995;52.154;4.498;2023-04-27T10:40:03;102057.28;;;19.07;26.50
72414;BME280;60995;52.154;4.498;2023-04-27T10:42:26;102060.41;;;19.55;26.77
72414;BME280;60995;52.154;4.498;2023-04-27T10:44:53;102054.69;;;20.15;25.60
72414;BME280;60995;52.154;4.498;2023-04-27T10:47:14;102050.22;;;21.20;25.42
72414;BME280;60995;52.154;4.498;2023-04-27T10:49:32;102053.44;;;19.85;24.50
72414;BME280;60995;52.154;4.498;2023-04-27T10:51:49;102046.16;;;19.67;26.24
72414;BME280;60995;52.154;4.498;2023-04-27T10:54:07;102037.09;;;21.22;25.04
72414;BME280;60995;52.154;4.498;2023-04-27T10:56:23;102047.28;;;20.08;25.17
72414;BME280;60995;52.154;4.498;2023-04-27T10:58:41;102042.25;;;19.27;25.79
72414;BME280;60995;52.154;4.498;2023-04-27T11:00:58;102034.19;;;18.47;26.87
72414;BME280;60995;52.154;4.498;2023-04-27T11:03:20;102034.59;;;19.05;27.23
72414;BME280;60995;52.154;4.498;2023-04-27T11:05:37;102043.91;;;18.15;26.83
72414;BME280;60995;52.154;4.498;2023-04-27T11:08:04;102032.13;;;18.05;26.37
72414;BME280;60995;52.154;4.498;2023-04-27T11:10:21;102028.13;;;17.81;26.91
72414;BME280;60995;52.154;4.498;2023-04-27T11:12:38;102028.63;;;18.39;27.46
72414;BME280;60995;52.154;4.498;2023-04-27T11:14:57;102034.53;;;18.96;28.10
72414;BME280;60995;52.154;4.498;2023-04-27T11:17:14;102028.22;;;19.12;27.40
72414;BME280;60995;52.154;4.498;2023-04-27T11:19:30;102022.69;;;19.39;26.26
72414;BME280;60995;52.154;4.498;2023-04-27T11:21:47;102018.22;;;19.46;26.45
72414;BME280;60995;52.154;4.498;2023-04-27T11:24:04;102005.59;;;20.27;25.65
72414;BME280;60995;52.154;4.498;2023-04-27T11:26:23;102005.72;;;19.68;26.27
72414;BME280;60995;52.154;4.498;2023-04-27T11:28:43;102007.25;;;19.71;25.72
72414;BME280;60995;52.154;4.498;2023-04-27T11:31:00;102009.16;;;19.11;25.91
72414;BME280;60995;52.154;4.498;2023-04-27T11:33:17;102020.81;;;17.90;26.94
72414;BME280;60995;52.154;4.498;2023-04-27T11:35:33;102007.22;;;17.52;28.90
72414;BME280;60995;52.154;4.498;2023-04-27T11:37:55;102007.00;;;16.32;30.33
72414;BME280;60995;52.154;4.498;2023-04-27T11:40:14;101999.31;;;16.36;28.55
72414;BME280;60995;52.154;4.498;2023-04-27T11:42:30;102006.41;;;16.86;29.88
72414;BME280;60995;52.154;4.498;2023-04-27T11:44:58;102013.63;;;17.43;27.87
72414;BME280;60995;52.154;4.498;2023-04-27T11:47:17;102008.25;;;16.95;29.49
72414;BME280;60995;52.154;4.498;2023-04-27T11:49:37;102009.88;;;17.44;28.86
72414;BME280;60995;52.154;4.498;2023-04-27T11:51:55;102003.41;;;16.69;28.92
72414;BME280;60995;52.154;4.498;2023-04-27T11:54:12;102016.81;;;16.92;28.70
72414;BME280;60995;52.154;4.498;2023-04-27T11:56:36;102002.00;;;17.59;27.65
72414;BME280;60995;52.154;4.498;2023-04-27T11:58:56;102004.16;;;18.27;26.39
72414;BME280;60995;52.154;4.498;2023-04-27T12:01:13;102008.25;;;17.23;27.28
72414;BME280;60995;52.154;4.498;2023-04-27T12:03:30;101991.78;;;16.58;29.01
72414;BME280;60995;52.154;4.498;2023-04-27T12:05:50;101996.50;;;16.65;29.23
72414;BME280;60995;52.154;4.498;2023-04-27T12:08:07;102004.84;;;16.07;29.99
72414;BME280;60995;52.154;4.498;2023-04-27T12:10:24;102004.66;;;16.37;30.89
72414;BME280;60995;52.154;4.498;2023-04-27T12:12:40;102000.22;;;17.40;28.22